sensor_id;sensor_type;location;lat;lon;timestamp;pressure;altitude;pressure_sealevel;temperature;humidity
11648;BME280;5880;52.342;9.662;2023-02-16T00:00:21;101774.44;;;8.74;52.15
11648;BME280;5880;52.342;9.662;2023-02-16T00:02:48;101762.22;;;8.70;52.38
11648;BME280;5880;52.342;9.662;2023-02-16T00:05:28;101772.75;;;8.73;52.25
11648;BME280;5880;52.342;9.662;2023-02-16T00:07:56;101768.72;;;8.69;52.19
11648;BME280;5880;52.342;9.662;2023-02-16T00:10:25;101766.84;;;8.69;52.15
11648;BME280;5880;52.342;9.662;2023-02-16T00:12:52;101754.22;;;8.68;51.68
11648;BME280;5880;52.342;9.662;2023-02-16T00:15:36;101763.63;;;8.65;52.00
11648;BME280;5880;52.342;9.662;2023-02-16T00:18:06;101758.19;;;8.65;51.79
11648;BME280;5880;52.342;9.662;2023-02-16T00:20:38;101757.75;;;8.62;51.93
11648;BME280;5880;52.342;9.662;2023-02-16T00:23:03;101753.53;;;8.59;51.61
11648;BME280;5880;52.342;9.662;2023-02-16T00:25:29;101749.09;;;8.58;51.51
11648;BME280;5880;52.342;9.662;2023-02-16T00:27:55;101744.88;;;8.56;51.77
11648;BME280;5880;52.342;9.662;2023-02-16T00:30:21;101746.09;;;8.53;51.88
11648;BME280;5880;52.342;9.662;2023-02-16T00:32:46;101733.44;;;8.45;51.97
11648;BME280;5880;52.342;9.662;2023-02-16T00:35:20;101733.88;;;8.49;51.93
11648;BME280;5880;52.342;9.662;2023-02-16T00:37:47;101735.28;;;8.45;52.26
11648;BME280;5880;52.342;9.662;2023-02-16T00:40:15;101744.34;;;8.45;52.06
11648;BME280;5880;52.342;9.662;2023-02-16T00:42:43;101748.94;;;8.45;51.97
11648;BME280;5880;52.342;9.662;2023-02-16T00:45:18;101737.19;;;8.44;52.07
11648;BME280;5880;52.342;9.662;2023-02-16T00:47:47;101746.41;;;8.43;51.78
11648;BME280;5880;52.342;9.662;2023-02-16T00:50:32;101744.69;;;8.42;51.50
11648;BME280;5880;52.342;9.662;2023-02-16T00:52:59;101749.69;;;8.39;51.81
11648;BME280;5880;52.342;9.662;2023-02-16T00:55:30;101748.19;;;8.36;51.66
11648;BME280;5880;52.342;9.662;2023-02-16T00:58:15;101745.81;;;8.33;51.67
11648;BME280;5880;52.342;9.662;2023-02-16T01:01:09;101741.81;;;8.29;51.66
11648;BME280;5880;52.342;9.662;2023-02-16T01:03:41;101732.50;;;8.23;51.39
11648;BME280;5880;52.342;9.662;2023-02-16T01:06:09;101729.97;;;8.22;51.52
11648;BME280;5880;52.342;9.662;2023-02-16T01:09:05;101734.75;;;8.20;52.27
11648;BME280;5880;52.342;9.662;2023-02-16T01:11:50;101736.16;;;8.16;52.05
11648;BME280;5880;52.342;9.662;2023-02-16T01:14:16;101729.06;;;8.15;52.05
11648;BME280;5880;52.342;9.662;2023-02-16T01:16:42;101727.16;;;8.15;52.23
11648;BME280;5880;52.342;9.662;2023-02-16T01:19:11;101721.72;;;8.15;51.99
11648;BME280;5880;52.342;9.662;2023-02-16T01:21:36;101722.72;;;8.14;52.12
11648;BME280;5880;52.342;9.662;2023-02-16T01:24:02;101717.50;;;8.13;52.15
11648;BME280;5880;52.342;9.662;2023-02-16T01:26:40;101712.50;;;8.16;52.03
11648;BME280;5880;52.342;9.662;2023-02-16T01:29:06;101724.22;;;8.17;52.36
11648;BME280;5880;52.342;9.662;2023-02-16T01:31:32;101724.22;;;8.17;52.19
11648;BME280;5880;52.342;9.662;2023-02-16T01:33:57;101716.94;;;8.17;52.02
11648;BME280;5880;52.342;9.662;2023-02-16T01:36:32;101727.63;;;8.19;52.43
11648;BME280;5880;52.342;9.662;2023-02-16T01:39:00;101717.59;;;8.19;52.03
11648;BME280;5880;52.342;9.662;2023-02-16T01:42:02;101722.81;;;8.21;52.05
11648;BME280;5880;52.342;9.662;2023-02-16T01:44:52;101725.75;;;8.19;52.07
11648;BME280;5880;52.342;9.662;2023-02-16T01:47:36;101716.28;;;8.15;51.81
11648;BME280;5880;52.342;9.662;2023-02-16T01:50:40;101719.56;;;8.11;51.49
11648;BME280;5880;52.342;9.662;2023-02-16T01:53:34;101717.50;;;8.13;51.71
11648;BME280;5880;52.342;9.662;2023-02-16T01:56:07;101714.94;;;8.11;51.45
11648;BME280;5880;52.342;9.662;2023-02-16T01:58:53;101701.25;;;8.04;51.95
11648;BME280;5880;52.342;9.662;2023-02-16T02:01:39;101711.13;;;8.06;51.71
11648;BME280;5880;52.342;9.662;2023-02-16T02:04:43;101705.00;;;8.03;51.88
11648;BME280;5880;52.342;9.662;2023-02-16T02:07:50;101699.47;;;7.97;51.56
11648;BME280;5880;52.342;9.662;2023-02-16T02:10:34;101682.88;;;7.92;52.19
11648;BME280;5880;52.342;9.662;2023-02-16T02:13:33;101691.88;;;7.92;51.48
11648;BME280;5880;52.342;9.662;2023-02-16T02:16:00;101698.53;;;7.90;51.48
11648;BME280;5880;52.342;9.662;2023-02-16T02:18:28;101692.44;;;7.88;51.87
11648;BME280;5880;52.342;9.662;2023-02-16T02:24:46;101680.13;;;7.77;51.62
11648;BME280;5880;52.342;9.662;2023-02-16T02:27:32;101673.97;;;7.68;51.71
11648;BME280;5880;52.342;9.662;2023-02-16T02:36:27;101689.81;;;7.65;51.79
11648;BME280;5880;52.342;9.662;2023-02-16T02:44:39;101688.31;;;7.62;52.04
11648;BME280;5880;52.342;9.662;2023-02-16T02:47:07;101691.03;;;7.62;52.22
11648;BME280;5880;52.342;9.662;2023-02-16T02:49:33;101695.63;;;7.61;52.22
11648;BME280;5880;52.342;9.662;2023-02-16T02:51:59;101691.22;;;7.60;52.20
11648;BME280;5880;52.342;9.662;2023-02-16T02:54:33;101688.31;;;7.62;51.78
11648;BME280;5880;52.342;9.662;2023-02-16T02:57:39;101686.69;;;7.53;52.22
11648;BME280;5880;52.342;9.662;2023-02-16T03:00:38;101702.00;;;7.54;52.31
11648;BME280;5880;52.342;9.662;2023-02-16T03:03:27;101694.88;;;7.53;51.74
11648;BME280;5880;52.342;9.662;2023-02-16T03:06:14;101708.66;;;7.51;51.59
11648;BME280;5880;52.342;9.662;2023-02-16T03:08:48;101705.28;;;7.49;51.30
11648;BME280;5880;52.342;9.662;2023-02-16T03:11:21;101689.16;;;7.48;51.73
11648;BME280;5880;52.342;9.662;2023-02-16T03:14:30;101698.88;;;7.42;51.75
11648;BME280;5880;52.342;9.662;2023-02-16T03:17:02;101699.25;;;7.39;51.85
11648;BME280;5880;52.342;9.662;2023-02-16T03:19:50;101696.91;;;7.36;51.79
11648;BME280;5880;52.342;9.662;2023-02-16T03:22:36;101700.66;;;7.35;51.83
11648;BME280;5880;52.342;9.662;2023-02-16T03:25:25;101700.84;;;7.33;52.09
11648;BME280;5880;52.342;9.662;2023-02-16T03:28:14;101696.41;;;7.32;52.40
11648;BME280;5880;52.342;9.662;2023-02-16T03:31:01;101689.31;;;7.31;51.93
11648;BME280;5880;52.342;9.662;2023-02-16T03:33:28;101690.97;;;7.32;52.24
11648;BME280;5880;52.342;9.662;2023-02-16T03:35:56;101693.91;;;7.31;52.20
11648;BME280;5880;52.342;9.662;2023-02-16T03:38:23;101689.31;;;7.31;52.36
11648;BME280;5880;52.342;9.662;2023-02-16T03:40:50;101690.97;;;7.32;52.06
11648;BME280;5880;52.342;9.662;2023-02-16T03:43:16;101693.91;;;7.31;52.06
11648;BME280;5880;52.342;9.662;2023-02-16T03:45:43;101683.38;;;7.28;52.70
11648;BME280;5880;52.342;9.662;2023-02-16T03:48:10;101694.75;;;7.31;52.62
11648;BME280;5880;52.342;9.662;2023-02-16T03:50:36;101694.56;;;7.33;53.00
11648;BME280;5880;52.342;9.662;2023-02-16T03:53:02;101694.38;;;7.34;52.86
11648;BME280;5880;52.342;9.662;2023-02-16T03:55:38;101687.72;;;7.37;52.76
11648;BME280;5880;52.342;9.662;2023-02-16T03:58:06;101685.66;;;7.39;52.78
11648;BME280;5880;52.342;9.662;2023-02-16T04:00:33;101685.47;;;7.40;53.00
11648;BME280;5880;52.342;9.662;2023-02-16T04:02:59;101681.53;;;7.43;52.37
11648;BME280;5880;52.342;9.662;2023-02-16T04:05:26;101681.53;;;7.43;52.83
11648;BME280;5880;52.342;9.662;2023-02-16T04:07:51;101675.06;;;7.44;52.87
11648;BME280;5880;52.342;9.662;2023-02-16T04:10:18;101674.22;;;7.44;52.60
11648;BME280;5880;52.342;9.662;2023-02-16T04:12:43;101675.94;;;7.45;53.07
11648;BME280;5880;52.342;9.662;2023-02-16T04:15:19;101663.50;;;7.42;53.19
11648;BME280;5880;52.342;9.662;2023-02-16T04:17:45;101668.78;;;7.44;53.02
11648;BME280;5880;52.342;9.662;2023-02-16T04:20:16;101673.47;;;7.50;53.22
11648;BME280;5880;52.342;9.662;2023-02-16T04:22:42;101677.03;;;7.50;53.25
11648;BME280;5880;52.342;9.662;2023-02-16T04:25:08;101670.56;;;7.51;53.26
11648;BME280;5880;52.342;9.662;2023-02-16T04:27:35;101676.66;;;7.53;53.08
11648;BME280;5880;52.342;9.662;2023-02-16T04:30:02;101663.94;;;7.54;53.16
11648;BME280;5880;52.342;9.662;2023-02-16T04:32:29;101666.44;;;7.55;52.89
11648;BME280;5880;52.342;9.662;2023-02-16T04:34:54;101657.25;;;7.56;53.49
11648;BME280;5880;52.342;9.662;2023-02-16T04:37:20;101652.84;;;7.55;53.44
11648;BME280;5880;52.342;9.662;2023-02-16T04:39:46;101656.38;;;7.56;53.05
11648;BME280;5880;52.342;9.662;2023-02-16T04:42:12;101643.16;;;7.53;53.19
11648;BME280;5880;52.342;9.662;2023-02-16T04:44:37;101643.44;;;7.58;53.33
11648;BME280;5880;52.342;9.662;2023-02-16T04:47:03;101647.22;;;7.57;53.39
11648;BME280;5880;52.342;9.662;2023-02-16T04:49:29;101643.44;;;7.58;53.49
11648;BME280;5880;52.342;9.662;2023-02-16T04:51:55;101638.22;;;7.56;52.80
11648;BME280;5880;52.342;9.662;2023-02-16T04:54:20;101636.13;;;7.58;53.83
11648;BME280;5880;52.342;9.662;2023-02-16T04:56:47;101641.38;;;7.60;53.08
11648;BME280;5880;52.342;9.662;2023-02-16T04:59:14;101638.50;;;7.61;53.61
11648;BME280;5880;52.342;9.662;2023-02-16T05:01:41;101633.06;;;7.61;53.95
11648;BME280;5880;52.342;9.662;2023-02-16T05:04:07;101626.56;;;7.63;53.57
11648;BME280;5880;52.342;9.662;2023-02-16T05:06:37;101633.72;;;7.64;53.24
11648;BME280;5880;52.342;9.662;2023-02-16T05:09:04;101629.28;;;7.63;53.33
11648;BME280;5880;52.342;9.662;2023-02-16T05:11:30;101642.53;;;7.66;53.15
11648;BME280;5880;52.342;9.662;2023-02-16T05:14:22;101646.09;;;7.66;53.53
11648;BME280;5880;52.342;9.662;2023-02-16T05:17:08;101645.59;;;7.63;53.31
11648;BME280;5880;52.342;9.662;2023-02-16T05:19:35;101648.16;;;7.64;53.72
11648;BME280;5880;52.342;9.662;2023-02-16T05:22:02;101644.59;;;7.64;53.58
11648;BME280;5880;52.342;9.662;2023-02-16T05:24:28;101655.09;;;7.67;53.19
11648;BME280;5880;52.342;9.662;2023-02-16T05:26:53;101651.53;;;7.66;53.14
11648;BME280;5880;52.342;9.662;2023-02-16T05:29:19;101644.78;;;7.62;53.56
11648;BME280;5880;52.342;9.662;2023-02-16T05:31:45;101654.03;;;7.68;53.53
11648;BME280;5880;52.342;9.662;2023-02-16T05:34:11;101646.75;;;7.68;52.99
11648;BME280;5880;52.342;9.662;2023-02-16T05:36:37;101646.75;;;7.68;52.97
11648;BME280;5880;52.342;9.662;2023-02-16T05:39:03;101647.59;;;7.69;52.52
11648;BME280;5880;52.342;9.662;2023-02-16T05:41:29;101648.59;;;7.68;53.08
11648;BME280;5880;52.342;9.662;2023-02-16T05:44:01;101653.22;;;7.67;52.93
11648;BME280;5880;52.342;9.662;2023-02-16T05:46:29;101649.81;;;7.65;53.05
11648;BME280;5880;52.342;9.662;2023-02-16T05:48:57;101652.75;;;7.64;53.11
11648;BME280;5880;52.342;9.662;2023-02-16T05:51:23;101651.88;;;7.63;52.95
11648;BME280;5880;52.342;9.662;2023-02-16T05:53:49;101652.09;;;7.61;53.15
11648;BME280;5880;52.342;9.662;2023-02-16T05:56:16;101657.34;;;7.63;53.10
11648;BME280;5880;52.342;9.662;2023-02-16T05:58:42;101652.66;;;7.57;53.03
11648;BME280;5880;52.342;9.662;2023-02-16T06:01:08;101654.34;;;7.58;52.35
11648;BME280;5880;52.342;9.662;2023-02-16T06:03:34;101658.94;;;7.57;53.16
11648;BME280;5880;52.342;9.662;2023-02-16T06:06:02;101672.38;;;7.59;53.11
11648;BME280;5880;52.342;9.662;2023-02-16T06:08:29;101674.44;;;7.57;53.04
11648;BME280;5880;52.342;9.662;2023-02-16T06:10:55;101662.69;;;7.56;53.01
11648;BME280;5880;52.342;9.662;2023-02-16T06:13:21;101672.53;;;7.57;52.64
11648;BME280;5880;52.342;9.662;2023-02-16T06:15:52;101669.16;;;7.55;53.16
11648;BME280;5880;52.342;9.662;2023-02-16T06:18:18;101672.94;;;7.54;53.18
11648;BME280;5880;52.342;9.662;2023-02-16T06:20:45;101678.38;;;7.54;53.16
11648;BME280;5880;52.342;9.662;2023-02-16T06:23:12;101663.06;;;7.53;53.23
11648;BME280;5880;52.342;9.662;2023-02-16T06:25:41;101663.94;;;7.54;53.13
11648;BME280;5880;52.342;9.662;2023-02-16T06:28:08;101656.59;;;7.54;53.62
11648;BME280;5880;52.342;9.662;2023-02-16T06:30:34;101640.44;;;7.53;53.21
11648;BME280;5880;52.342;9.662;2023-02-16T06:33:01;101649.44;;;7.53;53.23
11648;BME280;5880;52.342;9.662;2023-02-16T06:35:26;101650.94;;;7.56;53.52
11648;BME280;5880;52.342;9.662;2023-02-16T06:37:52;101652.84;;;7.55;53.66
11648;BME280;5880;52.342;9.662;2023-02-16T06:40:18;101650.13;;;7.55;53.12
11648;BME280;5880;52.342;9.662;2023-02-16T06:42:44;101654.34;;;7.58;53.46
11648;BME280;5880;52.342;9.662;2023-02-16T06:45:10;101661.09;;;7.62;53.42
11648;BME280;5880;52.342;9.662;2023-02-16T06:47:36;101661.94;;;7.63;53.15
11648;BME280;5880;52.342;9.662;2023-02-16T06:50:05;101671.59;;;7.65;53.52
11648;BME280;5880;52.342;9.662;2023-02-16T06:52:31;101678.09;;;7.64;53.35
11648;BME280;5880;52.342;9.662;2023-02-16T06:54:57;101669.75;;;7.66;52.89
11648;BME280;5880;52.342;9.662;2023-02-16T06:57:23;101667.03;;;7.66;53.43
11648;BME280;5880;52.342;9.662;2023-02-16T06:59:49;101665.50;;;7.63;53.00
11648;BME280;5880;52.342;9.662;2023-02-16T07:02:14;101659.69;;;7.66;53.23
11648;BME280;5880;52.342;9.662;2023-02-16T07:04:40;101664.31;;;7.66;53.34
11648;BME280;5880;52.342;9.662;2023-02-16T07:07:06;101665.31;;;7.65;53.28
11648;BME280;5880;52.342;9.662;2023-02-16T07:09:35;101673.47;;;7.65;52.73
11648;BME280;5880;52.342;9.662;2023-02-16T07:12:00;101670.66;;;7.58;52.96
11648;BME280;5880;52.342;9.662;2023-02-16T07:14:26;101675.53;;;7.63;53.22
11648;BME280;5880;52.342;9.662;2023-02-16T07:16:52;101684.38;;;7.65;53.24
11648;BME280;5880;52.342;9.662;2023-02-16T07:19:18;101673.88;;;7.61;53.44
11648;BME280;5880;52.342;9.662;2023-02-16T07:21:43;101677.91;;;7.66;53.23
11648;BME280;5880;52.342;9.662;2023-02-16T07:24:09;101667.84;;;7.66;53.52
11648;BME280;5880;52.342;9.662;2023-02-16T07:26:35;101680.06;;;7.70;53.80
11648;BME280;5880;52.342;9.662;2023-02-16T07:29:03;101674.63;;;7.70;53.24
11648;BME280;5880;52.342;9.662;2023-02-16T07:31:29;101674.03;;;7.75;53.41
11648;BME280;5880;52.342;9.662;2023-02-16T07:33:55;101669.25;;;7.77;53.39
11648;BME280;5880;52.342;9.662;2023-02-16T07:36:21;101673.28;;;7.81;54.12
11648;BME280;5880;52.342;9.662;2023-02-16T07:38:46;101673.56;;;7.86;54.17
11648;BME280;5880;52.342;9.662;2023-02-16T07:41:12;101674.88;;;7.90;54.05
11648;BME280;5880;52.342;9.662;2023-02-16T07:43:38;101675.16;;;7.95;54.12
11648;BME280;5880;52.342;9.662;2023-02-16T07:46:04;101687.19;;;8.01;54.25
11648;BME280;5880;52.342;9.662;2023-02-16T07:48:29;101696.47;;;8.07;54.40
11648;BME280;5880;52.342;9.662;2023-02-16T07:50:55;101690.25;;;8.13;54.61
11648;BME280;5880;52.342;9.662;2023-02-16T07:53:21;101682.19;;;8.19;54.66
11648;BME280;5880;52.342;9.662;2023-02-16T07:55:46;101683.94;;;8.27;54.61
11648;BME280;5880;52.342;9.662;2023-02-16T07:58:13;101684.69;;;8.36;54.82
11648;BME280;5880;52.342;9.662;2023-02-16T08:01:13;101688.97;;;8.45;54.63
11648;BME280;5880;52.342;9.662;2023-02-16T08:03:39;101679.22;;;8.51;54.71
11648;BME280;5880;52.342;9.662;2023-02-16T08:06:06;101678.22;;;8.58;54.47
11648;BME280;5880;52.342;9.662;2023-02-16T08:08:34;101676.16;;;8.60;54.32
11648;BME280;5880;52.342;9.662;2023-02-16T08:11:09;101686.97;;;8.69;54.40
11648;BME280;5880;52.342;9.662;2023-02-16T08:13:35;101686.56;;;8.72;54.30
11648;BME280;5880;52.342;9.662;2023-02-16T08:16:01;101689.94;;;8.74;54.71
11648;BME280;5880;52.342;9.662;2023-02-16T08:18:28;101699.69;;;8.83;54.52
11648;BME280;5880;52.342;9.662;2023-02-16T08:20:54;101688.19;;;8.87;54.57
11648;BME280;5880;52.342;9.662;2023-02-16T08:23:21;101699.13;;;8.94;54.43
11648;BME280;5880;52.342;9.662;2023-02-16T08:25:47;101689.53;;;8.98;54.50
11648;BME280;5880;52.342;9.662;2023-02-16T08:28:12;101682.41;;;8.97;54.49
11648;BME280;5880;52.342;9.662;2023-02-16T08:30:39;101686.28;;;9.09;54.80
11648;BME280;5880;52.342;9.662;2023-02-16T08:33:04;101679.81;;;9.17;54.73
11648;BME280;5880;52.342;9.662;2023-02-16T08:35:31;101670.03;;;9.23;54.77
11648;BME280;5880;52.342;9.662;2023-02-16T08:38:00;101674.47;;;9.30;54.88
11648;BME280;5880;52.342;9.662;2023-02-16T08:40:26;101681.47;;;9.40;55.12
11648;BME280;5880;52.342;9.662;2023-02-16T08:42:52;101676.50;;;9.50;55.19
11648;BME280;5880;52.342;9.662;2023-02-16T08:45:18;101674.94;;;9.62;55.43
11648;BME280;5880;52.342;9.662;2023-02-16T08:47:44;101669.53;;;9.76;55.43
11648;BME280;5880;52.342;9.662;2023-02-16T08:50:10;101674.66;;;9.92;55.55
11648;BME280;5880;52.342;9.662;2023-02-16T08:52:36;101661.72;;;10.07;55.59
11648;BME280;5880;52.342;9.662;2023-02-16T08:55:03;101656.28;;;10.21;55.57
11648;BME280;5880;52.342;9.662;2023-02-16T08:57:33;101649.88;;;10.35;55.35
11648;BME280;5880;52.342;9.662;2023-02-16T08:59:59;101650.31;;;10.45;55.56
11648;BME280;5880;52.342;9.662;2023-02-16T09:02:43;101652.22;;;10.58;55.35
11648;BME280;5880;52.342;9.662;2023-02-16T09:05:09;101653.69;;;10.67;55.21
11648;BME280;5880;52.342;9.662;2023-02-16T09:07:34;101656.06;;;10.77;55.18
11648;BME280;5880;52.342;9.662;2023-02-16T09:10:02;101661.09;;;10.87;54.94
11648;BME280;5880;52.342;9.662;2023-02-16T09:12:28;101661.13;;;10.93;55.10
11648;BME280;5880;52.342;9.662;2023-02-16T09:14:55;101665.53;;;11.01;54.72
11648;BME280;5880;52.342;9.662;2023-02-16T09:17:22;101668.66;;;11.05;54.71
11648;BME280;5880;52.342;9.662;2023-02-16T09:19:48;101657.09;;;11.09;54.73
11648;BME280;5880;52.342;9.662;2023-02-16T09:22:14;101662.38;;;11.17;54.52
11648;BME280;5880;52.342;9.662;2023-02-16T09:24:39;101673.72;;;11.21;54.37
11648;BME280;5880;52.342;9.662;2023-02-16T09:27:05;101663.84;;;11.20;54.31
11648;BME280;5880;52.342;9.662;2023-02-16T09:29:31;101676.69;;;11.26;54.65
11648;BME280;5880;52.342;9.662;2023-02-16T09:31:57;101674.16;;;11.31;54.10
11648;BME280;5880;52.342;9.662;2023-02-16T09:34:23;101671.19;;;11.33;54.09
11648;BME280;5880;52.342;9.662;2023-02-16T09:36:49;101656.91;;;11.31;54.10
11648;BME280;5880;52.342;9.662;2023-02-16T09:39:16;101666.97;;;11.37;53.94
11648;BME280;5880;52.342;9.662;2023-02-16T09:42:05;101674.56;;;11.41;53.96
11648;BME280;5880;52.342;9.662;2023-02-16T09:45:02;101667.19;;;11.42;54.00
11648;BME280;5880;52.342;9.662;2023-02-16T09:47:34;101680.47;;;11.45;54.08
11648;BME280;5880;52.342;9.662;2023-02-16T09:50:17;101687.16;;;11.49;54.17
11648;BME280;5880;52.342;9.662;2023-02-16T09:53:05;101686.34;;;11.55;54.23
11648;BME280;5880;52.342;9.662;2023-02-16T09:55:47;101683.41;;;11.57;53.85
11648;BME280;5880;52.342;9.662;2023-02-16T09:58:29;101688.63;;;11.58;53.87
11648;BME280;5880;52.342;9.662;2023-02-16T10:01:14;101694.34;;;11.64;53.93
11648;BME280;5880;52.342;9.662;2023-02-16T10:04:04;101695.81;;;11.66;54.05
11648;BME280;5880;52.342;9.662;2023-02-16T10:06:47;101682.94;;;11.67;54.02
11648;BME280;5880;52.342;9.662;2023-02-16T10:09:17;101682.72;;;11.68;53.92
11648;BME280;5880;52.342;9.662;2023-02-16T10:11:51;101693.66;;;11.75;54.05
11648;BME280;5880;52.342;9.662;2023-02-16T10:14:47;101690.50;;;11.78;54.03
11648;BME280;5880;52.342;9.662;2023-02-16T10:25:18;101680.78;;;11.82;53.44
11648;BME280;5880;52.342;9.662;2023-02-16T10:27:56;101668.78;;;11.83;53.43
11648;BME280;5880;52.342;9.662;2023-02-16T10:30:30;101661.22;;;11.85;53.45
11648;BME280;5880;52.342;9.662;2023-02-16T10:33:14;101662.47;;;11.89;53.68
11648;BME280;5880;52.342;9.662;2023-02-16T10:35:51;101663.97;;;11.92;53.49
11648;BME280;5880;52.342;9.662;2023-02-16T10:39:02;101652.13;;;11.91;53.31
11648;BME280;5880;52.342;9.662;2023-02-16T10:41:39;101669.19;;;11.93;53.27
11648;BME280;5880;52.342;9.662;2023-02-16T10:44:20;101680.97;;;12.00;53.47
11648;BME280;5880;52.342;9.662;2023-02-16T10:46:58;101675.91;;;12.04;53.43
11648;BME280;5880;52.342;9.662;2023-02-16T10:49:25;101681.16;;;12.06;53.23
11648;BME280;5880;52.342;9.662;2023-02-16T10:51:54;101683.88;;;12.12;52.86
11648;BME280;5880;52.342;9.662;2023-02-16T10:54:30;101684.06;;;12.17;53.01
11648;BME280;5880;52.342;9.662;2023-02-16T10:57:02;101692.72;;;12.21;52.87
11648;BME280;5880;52.342;9.662;2023-02-16T10:59:44;101692.25;;;12.24;52.74
11648;BME280;5880;52.342;9.662;2023-02-16T11:02:22;101692.06;;;12.25;52.60
11648;BME280;5880;52.342;9.662;2023-02-16T11:04:53;101682.56;;;12.28;52.50
11648;BME280;5880;52.342;9.662;2023-02-16T11:07:28;101681.28;;;12.31;52.68
11648;BME280;5880;52.342;9.662;2023-02-16T11:09:58;101680.25;;;12.32;52.48
11648;BME280;5880;52.342;9.662;2023-02-16T11:12:38;101685.28;;;12.35;52.61
11648;BME280;5880;52.342;9.662;2023-02-16T11:18:35;101682.91;;;12.38;52.80
11648;BME280;5880;52.342;9.662;2023-02-16T11:21:04;101681.88;;;12.39;52.51
11648;BME280;5880;52.342;9.662;2023-02-16T11:23:40;101673.00;;;12.44;52.63
11648;BME280;5880;52.342;9.662;2023-02-16T11:26:22;101683.50;;;12.47;52.54
11648;BME280;5880;52.342;9.662;2023-02-16T11:28:50;101672.34;;;12.49;52.65
11648;BME280;5880;52.342;9.662;2023-02-16T11:31:38;101670.22;;;12.51;52.35
11648;BME280;5880;52.342;9.662;2023-02-16T11:34:14;101660.28;;;12.50;52.19
11648;BME280;5880;52.342;9.662;2023-02-16T11:36:49;101663.88;;;12.50;52.51
11648;BME280;5880;52.342;9.662;2023-02-16T11:39:22;101659.88;;;12.53;52.09
11648;BME280;5880;52.342;9.662;2023-02-16T11:41:53;101656.06;;;12.54;52.01
11648;BME280;5880;52.342;9.662;2023-02-16T11:44:33;101658.34;;;12.57;52.03
11648;BME280;5880;52.342;9.662;2023-02-16T11:47:32;101657.50;;;12.56;52.10
11648;BME280;5880;52.342;9.662;2023-02-16T11:50:21;101657.50;;;12.56;52.11
11648;BME280;5880;52.342;9.662;2023-02-16T11:52:52;101660.25;;;12.56;51.92
11648;BME280;5880;52.342;9.662;2023-02-16T11:55:26;101663.84;;;12.57;51.82
11648;BME280;5880;52.342;9.662;2023-02-16T11:58:23;101665.75;;;12.56;51.68
11648;BME280;5880;52.342;9.662;2023-02-16T12:01:17;101661.53;;;12.54;51.73
11648;BME280;5880;52.342;9.662;2023-02-16T12:04:02;101651.03;;;12.51;51.88
11648;BME280;5880;52.342;9.662;2023-02-16T12:10:03;101655.88;;;12.49;51.79
11648;BME280;5880;52.342;9.662;2023-02-16T12:12:47;101655.25;;;12.46;51.95
11648;BME280;5880;52.342;9.662;2023-02-16T12:15:19;101655.25;;;12.46;52.09
11648;BME280;5880;52.342;9.662;2023-02-16T12:18:14;101652.91;;;12.50;52.07
11648;BME280;5880;52.342;9.662;2023-02-16T12:21:24;101655.22;;;12.53;52.22
11648;BME280;5880;52.342;9.662;2023-02-16T12:24:02;101646.53;;;12.56;52.25
11648;BME280;5880;52.342;9.662;2023-02-16T12:26:55;101645.50;;;12.57;52.66
11648;BME280;5880;52.342;9.662;2023-02-16T12:29:48;101645.69;;;12.62;52.27
11648;BME280;5880;52.342;9.662;2023-02-16T12:32:30;101646.06;;;12.66;52.17
11648;BME280;5880;52.342;9.662;2023-02-16T12:35:21;101638.44;;;12.68;52.10
11648;BME280;5880;52.342;9.662;2023-02-16T12:38:03;101635.72;;;12.68;52.14
11648;BME280;5880;52.342;9.662;2023-02-16T12:43:41;101612.25;;;12.72;52.14
11648;BME280;5880;52.342;9.662;2023-02-16T12:46:24;101619.22;;;12.75;51.83
11648;BME280;5880;52.342;9.662;2023-02-16T12:51:40;101627.22;;;12.76;51.86
11648;BME280;5880;52.342;9.662;2023-02-16T12:56:46;101619.81;;;12.77;51.63
11648;BME280;5880;52.342;9.662;2023-02-16T12:59:24;101615.19;;;12.77;51.59
11648;BME280;5880;52.342;9.662;2023-02-16T13:01:55;101610.53;;;12.78;51.70
11648;BME280;5880;52.342;9.662;2023-02-16T13:04:41;101603.38;;;12.77;51.61
11648;BME280;5880;52.342;9.662;2023-02-16T13:07:21;101615.34;;;12.82;51.49
11648;BME280;5880;52.342;9.662;2023-02-16T13:10:00;101601.63;;;12.82;51.57
11648;BME280;5880;52.342;9.662;2023-02-16T13:15:25;101606.72;;;12.79;51.16
11648;BME280;5880;52.342;9.662;2023-02-16T13:18:01;101612.44;;;12.77;51.05
11648;BME280;5880;52.342;9.662;2023-02-16T13:20:27;101608.03;;;12.76;51.35
11648;BME280;5880;52.342;9.662;2023-02-16T13:23:25;101602.28;;;12.78;51.00
11648;BME280;5880;52.342;9.662;2023-02-16T13:26:55;101588.19;;;12.74;51.38
11648;BME280;5880;52.342;9.662;2023-02-16T13:29:44;101584.00;;;12.72;51.40
11648;BME280;5880;52.342;9.662;2023-02-16T13:35:15;101588.41;;;12.73;51.21
11648;BME280;5880;52.342;9.662;2023-02-16T13:41:33;101574.84;;;12.78;51.38
11648;BME280;5880;52.342;9.662;2023-02-16T13:44:21;101576.94;;;12.82;51.52
11648;BME280;5880;52.342;9.662;2023-02-16T13:46:51;101574.59;;;12.86;51.23
11648;BME280;5880;52.342;9.662;2023-02-16T13:49:40;101556.44;;;12.85;51.19
11648;BME280;5880;52.342;9.662;2023-02-16T13:52:38;101555.38;;;12.86;51.27
11648;BME280;5880;52.342;9.662;2023-02-16T13:55:26;101559.38;;;12.90;51.23
11648;BME280;5880;52.342;9.662;2023-02-16T14:00:47;101549.22;;;12.91;51.19
11648;BME280;5880;52.342;9.662;2023-02-16T14:05:54;101546.69;;;12.89;50.69
11648;BME280;5880;52.342;9.662;2023-02-16T14:08:39;101534.94;;;12.82;51.02
11648;BME280;5880;52.342;9.662;2023-02-16T14:11:08;101526.94;;;12.80;51.02
11648;BME280;5880;52.342;9.662;2023-02-16T14:16:08;101537.06;;;12.80;50.68
11648;BME280;5880;52.342;9.662;2023-02-16T14:21:38;101517.50;;;12.76;50.93
11648;BME280;5880;52.342;9.662;2023-02-16T14:24:10;101507.56;;;12.75;50.63
11648;BME280;5880;52.342;9.662;2023-02-16T14:27:10;101499.81;;;12.72;50.86
11648;BME280;5880;52.342;9.662;2023-02-16T14:29:56;101512.06;;;12.70;50.77
11648;BME280;5880;52.342;9.662;2023-02-16T14:32:28;101512.28;;;12.68;50.82
11648;BME280;5880;52.342;9.662;2023-02-16T14:35:17;101498.34;;;12.70;50.94
11648;BME280;5880;52.342;9.662;2023-02-16T14:38:01;101497.28;;;12.71;51.18
11648;BME280;5880;52.342;9.662;2023-02-16T15:01:13;101524.59;;;12.59;50.98